sensor_id;sensor_type;location;lat;lon;timestamp;temperature;humidity
19340;HTU21D;9804;52.350;6.684;2023-10-09T00:01:26;15.72;-6.00
19340;HTU21D;9804;52.350;6.684;2023-10-09T00:03:52;15.76;-6.00
19340;HTU21D;9804;52.350;6.684;2023-10-09T00:06:22;15.81;-6.00
19340;HTU21D;9804;52.350;6.684;2023-10-09T00:09:02;15.92;-6.00
19340;HTU21D;9804;52.350;6.684;2023-10-09T00:11:42;15.96;-6.00
19340;HTU21D;9804;52.350;6.684;2023-10-09T00:14:12;15.95;-6.00
19340;HTU21D;9804;52.350;6.684;2023-10-09T00:16:40;15.96;-6.00
19340;HTU21D;9804;52.350;6.684;2023-10-09T00:19:12;16.03;-6.00
19340;HTU21D;9804;52.350;6.684;2023-10-09T00:21:55;15.98;-6.00
19340;HTU21D;9804;52.350;6.684;2023-10-09T00:24:21;16.14;-6.00
19340;HTU21D;9804;52.350;6.684;2023-10-09T00:26:50;16.17;-6.00
19340;HTU21D;9804;52.350;6.684;2023-10-09T00:29:16;16.20;-6.00
19340;HTU21D;9804;52.350;6.684;2023-10-09T00:31:52;16.18;-6.00
19340;HTU21D;9804;52.350;6.684;2023-10-09T00:34:39;16.27;-6.00
19340;HTU21D;9804;52.350;6.684;2023-10-09T00:37:08;16.26;-6.00
19340;HTU21D;9804;52.350;6.684;2023-10-09T00:39:45;16.33;-6.00
19340;HTU21D;9804;52.350;6.684;2023-10-09T00:42:13;16.36;-6.00
19340;HTU21D;9804;52.350;6.684;2023-10-09T00:44:40;16.43;-6.00
19340;HTU21D;9804;52.350;6.684;2023-10-09T00:47:13;16.49;-6.00
19340;HTU21D;9804;52.350;6.684;2023-10-09T00:49:57;16.48;-6.00
19340;HTU21D;9804;52.350;6.684;2023-10-09T00:52:34;16.52;-6.00
19340;HTU21D;9804;52.350;6.684;2023-10-09T00:55:14;16.50;-6.00
19340;HTU21D;9804;52.350;6.684;2023-10-09T00:58:08;16.41;-6.00
19340;HTU21D;9804;52.350;6.684;2023-10-09T01:00:38;16.45;-6.00
19340;HTU21D;9804;52.350;6.684;2023-10-09T01:03:10;16.52;-6.00
19340;HTU21D;9804;52.350;6.684;2023-10-09T01:05:56;16.40;-6.00
19340;HTU21D;9804;52.350;6.684;2023-10-09T01:08:26;16.54;-6.00
19340;HTU21D;9804;52.350;6.684;2023-10-09T01:11:13;16.63;-6.00
19340;HTU21D;9804;52.350;6.684;2023-10-09T01:13:47;16.66;-6.00
19340;HTU21D;9804;52.350;6.684;2023-10-09T01:16:17;16.65;-6.00
19340;HTU21D;9804;52.350;6.684;2023-10-09T01:18:43;16.66;-6.00
19340;HTU21D;9804;52.350;6.684;2023-10-09T01:21:12;16.64;-6.00
19340;HTU21D;9804;52.350;6.684;2023-10-09T01:23:43;16.78;-6.00
19340;HTU21D;9804;52.350;6.684;2023-10-09T01:26:28;16.77;-6.00
19340;HTU21D;9804;52.350;6.684;2023-10-09T01:28:58;16.73;-6.00
19340;HTU21D;9804;52.350;6.684;2023-10-09T01:31:25;16.78;-6.00
19340;HTU21D;9804;52.350;6.684;2023-10-09T01:34:09;16.78;-6.00
19340;HTU21D;9804;52.350;6.684;2023-10-09T01:36:38;16.82;-6.00
19340;HTU21D;9804;52.350;6.684;2023-10-09T01:39:05;16.78;-6.00
19340;HTU21D;9804;52.350;6.684;2023-10-09T01:41:50;16.78;-6.00
19340;HTU21D;9804;52.350;6.684;2023-10-09T01:44:23;16.85;-6.00
19340;HTU21D;9804;52.350;6.684;2023-10-09T01:46:50;16.90;-6.00
19340;HTU21D;9804;52.350;6.684;2023-10-09T01:49:17;16.88;-6.00
19340;HTU21D;9804;52.350;6.684;2023-10-09T01:51:47;16.90;-6.00
19340;HTU21D;9804;52.350;6.684;2023-10-09T01:54:13;17.01;-6.00
19340;HTU21D;9804;52.350;6.684;2023-10-09T01:56:58;17.01;-6.00
19340;HTU21D;9804;52.350;6.684;2023-10-09T01:59:30;17.05;-6.00
19340;HTU21D;9804;52.350;6.684;2023-10-09T02:01:56;17.03;-6.00
19340;HTU21D;9804;52.350;6.684;2023-10-09T02:04:23;17.11;-6.00
19340;HTU21D;9804;52.350;6.684;2023-10-09T02:06:49;16.96;-6.00
19340;HTU21D;9804;52.350;6.684;2023-10-09T02:09:18;17.13;-6.00
19340;HTU21D;9804;52.350;6.684;2023-10-09T02:11:56;17.23;-6.00
19340;HTU21D;9804;52.350;6.684;2023-10-09T02:14:22;17.26;-6.00
19340;HTU21D;9804;52.350;6.684;2023-10-09T02:16:49;17.19;-6.00
19340;HTU21D;9804;52.350;6.684;2023-10-09T02:19:35;17.28;-6.00
19340;HTU21D;9804;52.350;6.684;2023-10-09T02:22:03;17.29;-6.00
19340;HTU21D;9804;52.350;6.684;2023-10-09T02:24:41;17.32;-6.00
19340;HTU21D;9804;52.350;6.684;2023-10-09T02:27:13;17.37;-6.00
19340;HTU21D;9804;52.350;6.684;2023-10-09T02:29:46;17.34;-6.00
19340;HTU21D;9804;52.350;6.684;2023-10-09T02:32:13;17.31;-6.00
19340;HTU21D;9804;52.350;6.684;2023-10-09T02:34:40;17.39;-6.00
19340;HTU21D;9804;52.350;6.684;2023-10-09T02:37:05;17.37;-6.00
19340;HTU21D;9804;52.350;6.684;2023-10-09T02:39:31;17.47;-6.00
19340;HTU21D;9804;52.350;6.684;2023-10-09T02:42:09;17.49;-6.00
19340;HTU21D;9804;52.350;6.684;2023-10-09T02:44:34;17.51;-6.00
19340;HTU21D;9804;52.350;6.684;2023-10-09T02:47:05;17.51;-6.00
19340;HTU21D;9804;52.350;6.684;2023-10-09T02:49:37;17.59;-6.00
19340;HTU21D;9804;52.350;6.684;2023-10-09T02:52:05;17.48;-6.00
19340;HTU21D;9804;52.350;6.684;2023-10-09T02:54:32;17.51;-6.00
19340;HTU21D;9804;52.350;6.684;2023-10-09T02:57:01;17.56;-6.00
19340;HTU21D;9804;52.350;6.684;2023-10-09T02:59:41;17.60;-6.00
19340;HTU21D;9804;52.350;6.684;2023-10-09T03:02:07;17.60;-6.00
19340;HTU21D;9804;52.350;6.684;2023-10-09T03:04:33;17.66;-6.00
19340;HTU21D;9804;52.350;6.684;2023-10-09T03:06:59;17.72;-6.00
19340;HTU21D;9804;52.350;6.684;2023-10-09T03:09:25;17.69;-6.00
19340;HTU21D;9804;52.350;6.684;2023-10-09T03:11:55;17.69;-6.00
19340;HTU21D;9804;52.350;6.684;2023-10-09T03:14:35;17.73;-6.00
19340;HTU21D;9804;52.350;6.684;2023-10-09T03:17:01;17.79;-6.00
19340;HTU21D;9804;52.350;6.684;2023-10-09T03:19:31;17.76;-6.00
19340;HTU21D;9804;52.350;6.684;2023-10-09T03:22:05;17.77;-6.00
19340;HTU21D;9804;52.350;6.684;2023-10-09T03:24:34;17.82;-6.00
19340;HTU21D;9804;52.350;6.684;2023-10-09T03:27:00;17.84;-6.00
19340;HTU21D;9804;52.350;6.684;2023-10-09T03:29:26;17.77;-6.00
19340;HTU21D;9804;52.350;6.684;2023-10-09T03:31:52;17.75;-6.00
19340;HTU21D;9804;52.350;6.684;2023-10-09T03:34:18;17.75;-6.00
19340;HTU21D;9804;52.350;6.684;2023-10-09T03:36:45;17.84;-6.00
19340;HTU21D;9804;52.350;6.684;2023-10-09T03:39:10;17.79;-6.00
19340;HTU21D;9804;52.350;6.684;2023-10-09T03:41:55;17.76;-6.00
19340;HTU21D;9804;52.350;6.684;2023-10-09T03:44:24;17.80;-6.00
19340;HTU21D;9804;52.350;6.684;2023-10-09T03:46:49;17.83;-6.00
19340;HTU21D;9804;52.350;6.684;2023-10-09T03:49:16;17.84;-6.00
19340;HTU21D;9804;52.350;6.684;2023-10-09T03:51:48;17.78;-6.00
19340;HTU21D;9804;52.350;6.684;2023-10-09T03:54:15;17.90;-6.00
19340;HTU21D;9804;52.350;6.684;2023-10-09T03:56:41;17.91;-6.00
19340;HTU21D;9804;52.350;6.684;2023-10-09T03:59:06;17.95;-6.00
19340;HTU21D;9804;52.350;6.684;2023-10-09T04:01:36;17.75;-6.00
19340;HTU21D;9804;52.350;6.684;2023-10-09T04:04:05;17.95;-6.00
19340;HTU21D;9804;52.350;6.684;2023-10-09T04:06:33;17.92;-6.00
19340;HTU21D;9804;52.350;6.684;2023-10-09T04:11:27;18.00;-6.00
19340;HTU21D;9804;52.350;6.684;2023-10-09T04:13:53;17.98;-6.00
19340;HTU21D;9804;52.350;6.684;2023-10-09T04:16:20;17.95;-6.00
19340;HTU21D;9804;52.350;6.684;2023-10-09T04:18:58;18.05;-6.00
19340;HTU21D;9804;52.350;6.684;2023-10-09T04:21:24;17.96;-6.00
19340;HTU21D;9804;52.350;6.684;2023-10-09T04:24:03;17.93;-6.00
19340;HTU21D;9804;52.350;6.684;2023-10-09T04:26:48;18.06;-6.00
19340;HTU21D;9804;52.350;6.684;2023-10-09T04:29:14;18.03;-6.00
19340;HTU21D;9804;52.350;6.684;2023-10-09T04:31:55;18.07;-6.00
19340;HTU21D;9804;52.350;6.684;2023-10-09T04:34:25;18.11;-6.00
19340;HTU21D;9804;52.350;6.684;2023-10-09T04:36:57;18.00;-6.00
19340;HTU21D;9804;52.350;6.684;2023-10-09T04:39:41;18.02;-6.00
19340;HTU21D;9804;52.350;6.684;2023-10-09T04:42:14;18.14;-6.00
19340;HTU21D;9804;52.350;6.684;2023-10-09T04:45:02;18.13;-6.00
19340;HTU21D;9804;52.350;6.684;2023-10-09T04:47:29;18.12;-6.00
19340;HTU21D;9804;52.350;6.684;2023-10-09T04:50:05;18.18;-6.00
19340;HTU21D;9804;52.350;6.684;2023-10-09T04:52:34;18.28;-6.00
19340;HTU21D;9804;52.350;6.684;2023-10-09T04:55:00;18.19;-6.00
19340;HTU21D;9804;52.350;6.684;2023-10-09T04:57:44;18.12;-6.00
19340;HTU21D;9804;52.350;6.684;2023-10-09T05:00:15;18.15;-6.00
19340;HTU21D;9804;52.350;6.684;2023-10-09T05:02:59;18.13;-6.00
19340;HTU21D;9804;52.350;6.684;2023-10-09T05:05:49;18.17;-6.00
19340;HTU21D;9804;52.350;6.684;2023-10-09T05:08:23;18.15;-6.00
19340;HTU21D;9804;52.350;6.684;2023-10-09T05:11:00;18.28;-6.00
19340;HTU21D;9804;52.350;6.684;2023-10-09T05:13:36;18.24;-6.00
19340;HTU21D;9804;52.350;6.684;2023-10-09T05:18:30;18.39;-6.00
19340;HTU21D;9804;52.350;6.684;2023-10-09T05:21:02;18.34;-6.00
19340;HTU21D;9804;52.350;6.684;2023-10-09T05:23:47;18.32;-6.00
19340;HTU21D;9804;52.350;6.684;2023-10-09T05:26:36;18.33;-6.00
19340;HTU21D;9804;52.350;6.684;2023-10-09T05:29:15;18.40;-6.00
19340;HTU21D;9804;52.350;6.684;2023-10-09T05:32:00;18.36;-6.00
19340;HTU21D;9804;52.350;6.684;2023-10-09T05:34:34;18.43;-6.00
19340;HTU21D;9804;52.350;6.684;2023-10-09T05:37:03;18.39;-6.00
19340;HTU21D;9804;52.350;6.684;2023-10-09T05:39:48;18.24;-6.00
19340;HTU21D;9804;52.350;6.684;2023-10-09T05:42:27;18.36;-6.00
19340;HTU21D;9804;52.350;6.684;2023-10-09T05:45:12;18.37;-6.00
19340;HTU21D;9804;52.350;6.684;2023-10-09T05:47:47;18.47;-6.00
19340;HTU21D;9804;52.350;6.684;2023-10-09T05:50:19;18.42;-6.00
19340;HTU21D;9804;52.350;6.684;2023-10-09T05:52:47;18.42;-6.00
19340;HTU21D;9804;52.350;6.684;2023-10-09T05:55:16;18.51;-6.00
19340;HTU21D;9804;52.350;6.684;2023-10-09T05:57:59;18.46;-6.00
19340;HTU21D;9804;52.350;6.684;2023-10-09T06:00:34;18.46;-6.00
19340;HTU21D;9804;52.350;6.684;2023-10-09T06:03:18;18.47;-6.00
19340;HTU21D;9804;52.350;6.684;2023-10-09T06:05:47;18.57;-6.00
19340;HTU21D;9804;52.350;6.684;2023-10-09T06:08:20;18.51;-6.00
19340;HTU21D;9804;52.350;6.684;2023-10-09T06:11:04;18.50;-6.00
19340;HTU21D;9804;52.350;6.684;2023-10-09T06:13:53;18.49;-6.00
19340;HTU21D;9804;52.350;6.684;2023-10-09T06:16:34;18.52;-6.00
19340;HTU21D;9804;52.350;6.684;2023-10-09T06:19:10;18.58;-6.00
19340;HTU21D;9804;52.350;6.684;2023-10-09T06:21:45;18.49;-6.00
19340;HTU21D;9804;52.350;6.684;2023-10-09T06:24:17;18.38;-6.00
19340;HTU21D;9804;52.350;6.684;2023-10-09T06:26:46;18.53;-2.54
19340;HTU21D;9804;52.350;6.684;2023-10-09T06:29:27;18.56;-6.00
19340;HTU21D;9804;52.350;6.684;2023-10-09T06:32:12;18.61;-6.00
19340;HTU21D;9804;52.350;6.684;2023-10-09T06:35:00;18.66;-6.00
19340;HTU21D;9804;52.350;6.684;2023-10-09T06:37:42;18.66;-6.00
19340;HTU21D;9804;52.350;6.684;2023-10-09T06:40:33;18.62;-6.00
19340;HTU21D;9804;52.350;6.684;2023-10-09T06:43:18;18.55;6.00
19340;HTU21D;9804;52.350;6.684;2023-10-09T06:45:53;18.61;17.85
19340;HTU21D;9804;52.350;6.684;2023-10-09T06:48:37;18.78;-6.00
19340;HTU21D;9804;52.350;6.684;2023-10-09T06:51:04;18.80;-6.00
19340;HTU21D;9804;52.350;6.684;2023-10-09T06:53:44;18.81;-6.00
19340;HTU21D;9804;52.350;6.684;2023-10-09T06:56:28;18.79;-6.00
19340;HTU21D;9804;52.350;6.684;2023-10-09T06:58:54;18.69;-6.00
19340;HTU21D;9804;52.350;6.684;2023-10-09T07:01:20;18.84;-2.68
19340;HTU21D;9804;52.350;6.684;2023-10-09T07:04:06;18.83;-6.00
19340;HTU21D;9804;52.350;6.684;2023-10-09T07:06:49;18.83;-6.00
19340;HTU21D;9804;52.350;6.684;2023-10-09T07:09:16;18.89;-6.00
19340;HTU21D;9804;52.350;6.684;2023-10-09T07:11:46;18.88;-6.00
19340;HTU21D;9804;52.350;6.684;2023-10-09T07:14:20;18.92;-6.00
19340;HTU21D;9804;52.350;6.684;2023-10-09T07:16:59;18.95;-6.00
19340;HTU21D;9804;52.350;6.684;2023-10-09T07:19:28;19.05;-6.00
19340;HTU21D;9804;52.350;6.684;2023-10-09T07:22:00;19.06;-6.00
19340;HTU21D;9804;52.350;6.684;2023-10-09T07:24:31;19.03;-6.00
19340;HTU21D;9804;52.350;6.684;2023-10-09T07:27:08;19.09;-6.00
19340;HTU21D;9804;52.350;6.684;2023-10-09T07:29:35;19.06;-6.00
19340;HTU21D;9804;52.350;6.684;2023-10-09T07:32:13;19.09;-6.00
19340;HTU21D;9804;52.350;6.684;2023-10-09T07:34:45;19.06;-6.00
19340;HTU21D;9804;52.350;6.684;2023-10-09T07:37:23;19.11;-6.00
19340;HTU21D;9804;52.350;6.684;2023-10-09T07:39:50;19.11;-6.00
19340;HTU21D;9804;52.350;6.684;2023-10-09T07:42:23;19.24;-6.00
19340;HTU21D;9804;52.350;6.684;2023-10-09T07:45:07;19.12;-6.00
19340;HTU21D;9804;52.350;6.684;2023-10-09T07:47:49;19.14;-6.00
19340;HTU21D;9804;52.350;6.684;2023-10-09T07:50:37;19.16;-6.00
19340;HTU21D;9804;52.350;6.684;2023-10-09T07:53:16;19.26;-6.00
19340;HTU21D;9804;52.350;6.684;2023-10-09T07:55:45;19.32;-6.00
19340;HTU21D;9804;52.350;6.684;2023-10-09T07:58:20;19.31;-6.00
19340;HTU21D;9804;52.350;6.684;2023-10-09T08:00:51;19.41;-6.00
19340;HTU21D;9804;52.350;6.684;2023-10-09T08:03:34;19.33;-6.00
19340;HTU21D;9804;52.350;6.684;2023-10-09T08:06:01;19.35;-6.00
19340;HTU21D;9804;52.350;6.684;2023-10-09T08:08:53;19.40;-6.00
19340;HTU21D;9804;52.350;6.684;2023-10-09T08:11:36;19.41;-6.00
19340;HTU21D;9804;52.350;6.684;2023-10-09T08:14:11;19.32;-6.00
19340;HTU21D;9804;52.350;6.684;2023-10-09T08:16:46;19.50;-6.00
19340;HTU21D;9804;52.350;6.684;2023-10-09T08:19:11;19.40;-6.00
19340;HTU21D;9804;52.350;6.684;2023-10-09T08:22:00;19.40;-6.00
19340;HTU21D;9804;52.350;6.684;2023-10-09T08:24:49;19.54;-6.00
19340;HTU21D;9804;52.350;6.684;2023-10-09T08:27:26;19.51;-6.00
19340;HTU21D;9804;52.350;6.684;2023-10-09T08:29:58;19.65;-6.00
19340;HTU21D;9804;52.350;6.684;2023-10-09T08:32:39;19.65;-6.00
19340;HTU21D;9804;52.350;6.684;2023-10-09T08:35:06;19.69;-6.00
19340;HTU21D;9804;52.350;6.684;2023-10-09T08:37:52;19.87;-6.00
19340;HTU21D;9804;52.350;6.684;2023-10-09T08:40:18;19.95;-6.00
19340;HTU21D;9804;52.350;6.684;2023-10-09T08:42:52;19.86;-6.00
19340;HTU21D;9804;52.350;6.684;2023-10-09T08:45:21;19.87;-6.00
19340;HTU21D;9804;52.350;6.684;2023-10-09T08:47:52;20.03;-6.00
19340;HTU21D;9804;52.350;6.684;2023-10-09T08:50:19;20.07;-6.00
19340;HTU21D;9804;52.350;6.684;2023-10-09T08:52:45;20.21;-6.00
19340;HTU21D;9804;52.350;6.684;2023-10-09T08:55:11;20.19;-6.00
19340;HTU21D;9804;52.350;6.684;2023-10-09T08:57:39;20.22;-6.00
19340;HTU21D;9804;52.350;6.684;2023-10-09T09:00:07;20.34;-6.00
19340;HTU21D;9804;52.350;6.684;2023-10-09T09:02:36;20.34;-6.00
19340;HTU21D;9804;52.350;6.684;2023-10-09T09:05:16;20.39;-6.00
19340;HTU21D;9804;52.350;6.684;2023-10-09T09:07:44;20.29;-6.00
19340;HTU21D;9804;52.350;6.684;2023-10-09T09:10:09;20.25;-6.00
19340;HTU21D;9804;52.350;6.684;2023-10-09T09:12:47;20.29;-6.00
19340;HTU21D;9804;52.350;6.684;2023-10-09T09:15:19;20.43;-6.00
19340;HTU21D;9804;52.350;6.684;2023-10-09T09:17:46;20.26;-6.00
19340;HTU21D;9804;52.350;6.684;2023-10-09T09:20:25;20.11;-6.00
19340;HTU21D;9804;52.350;6.684;2023-10-09T09:23:00;20.22;-6.00
19340;HTU21D;9804;52.350;6.684;2023-10-09T09:25:44;20.19;-6.00
19340;HTU21D;9804;52.350;6.684;2023-10-09T09:28:14;20.22;-6.00
19340;HTU21D;9804;52.350;6.684;2023-10-09T09:30:47;20.48;-6.00
19340;HTU21D;9804;52.350;6.684;2023-10-09T09:33:25;20.65;-6.00
19340;HTU21D;9804;52.350;6.684;2023-10-09T09:36:06;20.37;-6.00
19340;HTU21D;9804;52.350;6.684;2023-10-09T09:38:34;20.28;-6.00
19340;HTU21D;9804;52.350;6.684;2023-10-09T09:41:18;20.60;-6.00
19340;HTU21D;9804;52.350;6.684;2023-10-09T09:43:53;20.57;-6.00
19340;HTU21D;9804;52.350;6.684;2023-10-09T09:46:22;20.58;-6.00
19340;HTU21D;9804;52.350;6.684;2023-10-09T09:49:03;20.79;-6.00
19340;HTU21D;9804;52.350;6.684;2023-10-09T09:51:32;20.73;-6.00
19340;HTU21D;9804;52.350;6.684;2023-10-09T09:53:58;20.68;-6.00
19340;HTU21D;9804;52.350;6.684;2023-10-09T09:56:28;20.71;-6.00
19340;HTU21D;9804;52.350;6.684;2023-10-09T09:58:57;20.93;-6.00
19340;HTU21D;9804;52.350;6.684;2023-10-09T10:01:29;21.00;-6.00
19340;HTU21D;9804;52.350;6.684;2023-10-09T10:04:04;20.93;-6.00
19340;HTU21D;9804;52.350;6.684;2023-10-09T10:06:32;20.73;-6.00
19340;HTU21D;9804;52.350;6.684;2023-10-09T10:08:59;20.88;-6.00
19340;HTU21D;9804;52.350;6.684;2023-10-09T10:11:44;20.85;-6.00
19340;HTU21D;9804;52.350;6.684;2023-10-09T10:14:13;21.06;-6.00
19340;HTU21D;9804;52.350;6.684;2023-10-09T10:17:04;21.06;-6.00
19340;HTU21D;9804;52.350;6.684;2023-10-09T10:22:26;21.04;-6.00
19340;HTU21D;9804;52.350;6.684;2023-10-09T10:24:55;20.91;-6.00
19340;HTU21D;9804;52.350;6.684;2023-10-09T10:27:25;21.02;-6.00
19340;HTU21D;9804;52.350;6.684;2023-10-09T10:35:21;21.17;-6.00
19340;HTU21D;9804;52.350;6.684;2023-10-09T10:41:17;21.18;-6.00
19340;HTU21D;9804;52.350;6.684;2023-10-09T10:43:46;21.35;-6.00
19340;HTU21D;9804;52.350;6.684;2023-10-09T10:46:22;21.32;-6.00
19340;HTU21D;9804;52.350;6.684;2023-10-09T10:49:04;21.48;-6.00
19340;HTU21D;9804;52.350;6.684;2023-10-09T10:51:42;21.32;-6.00
19340;HTU21D;9804;52.350;6.684;2023-10-09T10:54:20;21.61;-6.00
19340;HTU21D;9804;52.350;6.684;2023-10-09T10:57:18;21.62;-6.00
19340;HTU21D;9804;52.350;6.684;2023-10-09T11:00:16;21.57;-6.00
19340;HTU21D;9804;52.350;6.684;2023-10-09T11:03:00;21.79;-6.00
19340;HTU21D;9804;52.350;6.684;2023-10-09T11:05:45;21.49;-6.00
19340;HTU21D;9804;52.350;6.684;2023-10-09T11:08:18;21.45;-6.00
19340;HTU21D;9804;52.350;6.684;2023-10-09T11:10:49;21.34;-6.00
19340;HTU21D;9804;52.350;6.684;2023-10-09T11:13:27;21.29;-6.00
19340;HTU21D;9804;52.350;6.684;2023-10-09T11:16:00;21.31;-6.00
19340;HTU21D;9804;52.350;6.684;2023-10-09T11:18:41;21.30;-6.00
19340;HTU21D;9804;52.350;6.684;2023-10-09T11:21:13;21.45;-6.00
19340;HTU21D;9804;52.350;6.684;2023-10-09T11:23:40;21.53;-6.00
19340;HTU21D;9804;52.350;6.684;2023-10-09T11:26:19;21.55;-6.00
19340;HTU21D;9804;52.350;6.684;2023-10-09T11:29:13;21.67;-6.00
19340;HTU21D;9804;52.350;6.684;2023-10-09T11:32:05;21.73;-6.00
19340;HTU21D;9804;52.350;6.684;2023-10-09T11:34:35;21.99;-6.00
19340;HTU21D;9804;52.350;6.684;2023-10-09T11:37:03;21.91;-6.00
19340;HTU21D;9804;52.350;6.684;2023-10-09T11:39:37;21.80;-6.00
19340;HTU21D;9804;52.350;6.684;2023-10-09T11:42:18;21.90;-6.00
19340;HTU21D;9804;52.350;6.684;2023-10-09T11:45:04;22.22;-6.00
19340;HTU21D;9804;52.350;6.684;2023-10-09T11:47:48;22.41;-6.00
19340;HTU21D;9804;52.350;6.684;2023-10-09T11:50:38;22.19;-6.00
19340;HTU21D;9804;52.350;6.684;2023-10-09T11:53:08;22.36;-6.00
19340;HTU21D;9804;52.350;6.684;2023-10-09T11:55:37;22.39;-6.00
19340;HTU21D;9804;52.350;6.684;2023-10-09T11:58:04;22.23;-6.00
19340;HTU21D;9804;52.350;6.684;2023-10-09T12:00:31;22.08;-6.00
19340;HTU21D;9804;52.350;6.684;2023-10-09T12:03:06;21.89;-6.00
19340;HTU21D;9804;52.350;6.684;2023-10-09T12:05:32;21.89;-6.00
19340;HTU21D;9804;52.350;6.684;2023-10-09T12:07:58;21.88;-6.00
19340;HTU21D;9804;52.350;6.684;2023-10-09T12:10:26;21.62;-6.00
19340;HTU21D;9804;52.350;6.684;2023-10-09T12:12:55;21.80;-6.00
19340;HTU21D;9804;52.350;6.684;2023-10-09T12:15:24;21.98;-6.00
19340;HTU21D;9804;52.350;6.684;2023-10-09T12:17:50;21.63;-6.00
19340;HTU21D;9804;52.350;6.684;2023-10-09T12:20:18;21.35;-6.00
19340;HTU21D;9804;52.350;6.684;2023-10-09T12:22:59;21.33;-6.00
19340;HTU21D;9804;52.350;6.684;2023-10-09T12:25:27;21.28;-6.00
19340;HTU21D;9804;52.350;6.684;2023-10-09T12:27:57;21.20;-6.00
19340;HTU21D;9804;52.350;6.684;2023-10-09T12:30:23;21.34;-6.00
19340;HTU21D;9804;52.350;6.684;2023-10-09T12:32:53;21.27;-6.00
19340;HTU21D;9804;52.350;6.684;2023-10-09T12:35:19;21.32;-6.00
19340;HTU21D;9804;52.350;6.684;2023-10-09T12:37:44;21.43;-6.00
19340;HTU21D;9804;52.350;6.684;2023-10-09T12:40:10;21.38;-6.00
19340;HTU21D;9804;52.350;6.684;2023-10-09T12:42:36;21.65;-6.00
19340;HTU21D;9804;52.350;6.684;2023-10-09T12:45:02;21.67;-6.00
19340;HTU21D;9804;52.350;6.684;2023-10-09T12:47:33;21.68;-6.00
19340;HTU21D;9804;52.350;6.684;2023-10-09T12:49:59;21.82;-6.00
19340;HTU21D;9804;52.350;6.684;2023-10-09T12:52:24;21.73;-6.00
19340;HTU21D;9804;52.350;6.684;2023-10-09T12:54:55;21.87;-6.00
19340;HTU21D;9804;52.350;6.684;2023-10-09T12:57:21;21.80;-6.00
19340;HTU21D;9804;52.350;6.684;2023-10-09T12:59:46;21.95;-6.00
19340;HTU21D;9804;52.350;6.684;2023-10-09T13:02:14;21.83;-6.00
19340;HTU21D;9804;52.350;6.684;2023-10-09T13:04:54;22.11;-6.00
19340;HTU21D;9804;52.350;6.684;2023-10-09T13:07:19;22.27;-6.00
19340;HTU21D;9804;52.350;6.684;2023-10-09T13:09:49;22.36;-6.00
19340;HTU21D;9804;52.350;6.684;2023-10-09T13:12:36;22.05;-6.00
19340;HTU21D;9804;52.350;6.684;2023-10-09T13:15:08;22.01;-6.00
19340;HTU21D;9804;52.350;6.684;2023-10-09T13:17:38;21.81;-6.00
19340;HTU21D;9804;52.350;6.684;2023-10-09T13:20:05;21.90;-6.00
19340;HTU21D;9804;52.350;6.684;2023-10-09T13:22:40;21.49;-6.00
19340;HTU21D;9804;52.350;6.684;2023-10-09T13:25:10;21.92;-6.00
19340;HTU21D;9804;52.350;6.684;2023-10-09T13:27:42;22.37;-6.00
19340;HTU21D;9804;52.350;6.684;2023-10-09T13:30:18;22.57;-6.00
19340;HTU21D;9804;52.350;6.684;2023-10-09T13:32:50;22.28;-6.00
19340;HTU21D;9804;52.350;6.684;2023-10-09T13:35:19;22.64;-6.00
19340;HTU21D;9804;52.350;6.684;2023-10-09T13:37:45;22.61;-6.00
19340;HTU21D;9804;52.350;6.684;2023-10-09T13:40:20;22.73;-6.00
19340;HTU21D;9804;52.350;6.684;2023-10-09T13:42:53;22.69;-6.00
19340;HTU21D;9804;52.350;6.684;2023-10-09T13:45:24;22.92;-6.00
19340;HTU21D;9804;52.350;6.684;2023-10-09T13:47:56;22.61;-6.00
19340;HTU21D;9804;52.350;6.684;2023-10-09T13:50:25;22.44;-6.00
19340;HTU21D;9804;52.350;6.684;2023-10-09T13:52:58;22.84;-6.00
19340;HTU21D;9804;52.350;6.684;2023-10-09T13:55:23;22.40;-6.00
19340;HTU21D;9804;52.350;6.684;2023-10-09T13:57:57;22.81;-6.00
19340;HTU21D;9804;52.350;6.684;2023-10-09T14:00:22;22.16;-6.00
19340;HTU21D;9804;52.350;6.684;2023-10-09T14:03:07;22.32;-6.00
19340;HTU21D;9804;52.350;6.684;2023-10-09T14:05:40;22.50;-6.00
19340;HTU21D;9804;52.350;6.684;2023-10-09T14:08:20;22.39;-6.00
19340;HTU21D;9804;52.350;6.684;2023-10-09T14:10:49;22.07;-6.00
19340;HTU21D;9804;52.350;6.684;2023-10-09T14:13:15;22.23;-6.00
19340;HTU21D;9804;52.350;6.684;2023-10-09T14:15:42;22.07;-6.00
19340;HTU21D;9804;52.350;6.684;2023-10-09T14:18:08;21.97;-6.00
19340;HTU21D;9804;52.350;6.684;2023-10-09T14:20:37;22.18;-6.00
19340;HTU21D;9804;52.350;6.684;2023-10-09T14:23:03;22.14;-6.00
19340;HTU21D;9804;52.350;6.684;2023-10-09T14:25:35;22.21;-6.00
19340;HTU21D;9804;52.350;6.684;2023-10-09T14:28:08;22.11;-6.00
19340;HTU21D;9804;52.350;6.684;2023-10-09T14:30:35;22.16;-6.00
19340;HTU21D;9804;52.350;6.684;2023-10-09T14:33:08;21.93;-6.00
19340;HTU21D;9804;52.350;6.684;2023-10-09T14:35:40;21.91;-6.00
19340;HTU21D;9804;52.350;6.684;2023-10-09T14:38:10;22.17;-6.00
19340;HTU21D;9804;52.350;6.684;2023-10-09T14:40:45;21.83;-6.00
19340;HTU21D;9804;52.350;6.684;2023-10-09T14:43:11;22.16;-6.00
19340;HTU21D;9804;52.350;6.684;2023-10-09T14:45:46;22.08;-6.00
19340;HTU21D;9804;52.350;6.684;2023-10-09T14:48:17;22.07;-6.00
19340;HTU21D;9804;52.350;6.684;2023-10-09T14:50:47;21.96;-6.00
19340;HTU21D;9804;52.350;6.684;2023-10-09T14:53:14;22.06;-6.00
19340;HTU21D;9804;52.350;6.684;2023-10-09T14:55:40;22.39;-6.00
19340;HTU21D;9804;52.350;6.684;2023-10-09T14:58:10;22.34;-6.00
19340;HTU21D;9804;52.350;6.684;2023-10-09T15:00:36;22.06;-6.00
19340;HTU21D;9804;52.350;6.684;2023-10-09T15:03:01;22.11;-6.00
19340;HTU21D;9804;52.350;6.684;2023-10-09T15:05:29;22.12;-6.00
19340;HTU21D;9804;52.350;6.684;2023-10-09T15:07:57;21.95;-6.00
19340;HTU21D;9804;52.350;6.684;2023-10-09T15:10:22;21.94;-6.00
19340;HTU21D;9804;52.350;6.684;2023-10-09T15:12:49;22.03;-6.00
19340;HTU21D;9804;52.350;6.684;2023-10-09T15:15:15;21.67;-6.00
19340;HTU21D;9804;52.350;6.684;2023-10-09T15:17:41;21.74;-6.00
19340;HTU21D;9804;52.350;6.684;2023-10-09T15:20:11;21.75;-6.00
19340;HTU21D;9804;52.350;6.684;2023-10-09T15:22:43;21.77;-6.00
19340;HTU21D;9804;52.350;6.684;2023-10-09T15:25:09;21.73;-6.00
19340;HTU21D;9804;52.350;6.684;2023-10-09T15:27:39;21.90;-6.00
19340;HTU21D;9804;52.350;6.684;2023-10-09T15:30:05;21.75;-6.00
19340;HTU21D;9804;52.350;6.684;2023-10-09T15:32:32;21.72;-6.00
19340;HTU21D;9804;52.350;6.684;2023-10-09T15:35:00;21.95;-6.00
19340;HTU21D;9804;52.350;6.684;2023-10-09T15:37:27;21.70;-6.00
19340;HTU21D;9804;52.350;6.684;2023-10-09T15:39:53;21.78;-6.00
19340;HTU21D;9804;52.350;6.684;2023-10-09T15:42:18;21.78;-6.00
19340;HTU21D;9804;52.350;6.684;2023-10-09T15:44:43;21.99;-6.00
19340;HTU21D;9804;52.350;6.684;2023-10-09T15:47:13;21.96;-6.00
19340;HTU21D;9804;52.350;6.684;2023-10-09T15:49:40;21.82;-6.00
19340;HTU21D;9804;52.350;6.684;2023-10-09T15:52:09;21.89;-6.00
19340;HTU21D;9804;52.350;6.684;2023-10-09T15:54:39;21.92;-6.00
19340;HTU21D;9804;52.350;6.684;2023-10-09T15:57:08;22.06;-6.00
19340;HTU21D;9804;52.350;6.684;2023-10-09T15:59:35;22.06;-6.00
19340;HTU21D;9804;52.350;6.684;2023-10-09T16:02:00;22.08;-6.00
19340;HTU21D;9804;52.350;6.684;2023-10-09T16:04:26;21.89;-6.00
19340;HTU21D;9804;52.350;6.684;2023-10-09T16:06:51;21.92;-6.00
19340;HTU21D;9804;52.350;6.684;2023-10-09T16:09:18;21.85;-6.00
19340;HTU21D;9804;52.350;6.684;2023-10-09T16:11:49;21.50;-6.00
19340;HTU21D;9804;52.350;6.684;2023-10-09T16:14:15;21.87;-6.00
19340;HTU21D;9804;52.350;6.684;2023-10-09T16:16:41;22.02;-6.00
19340;HTU21D;9804;52.350;6.684;2023-10-09T16:19:10;21.62;-6.00
19340;HTU21D;9804;52.350;6.684;2023-10-09T16:21:36;21.49;-6.00